SWR8RF LIMF-LSZH

Flight info

Callsign SWR8RF
Flight time 0h 51m
Altitude 28000
Route MMP DCT CANNE Z651 KELIP
Aircraft A320/M-SDE3FGHIRWY/LB1

Departure

Time 2026-05-05 18:30
Airport Turin Airport (LIMF)

Arrival

Time 2026-05-05 19:22
Airport Zürich Airport (LSZH)
Time Latitude Longitude Altitude Speed Heading
2026-05-05 18:15 45.18936 7.64565 952 ft 0 kts 273°
2026-05-05 18:23 45.18936 7.64570 952 ft 3 kts 273°
2026-05-05 18:23 45.18935 7.64607 952 ft 4 kts 260°
2026-05-05 18:23 45.18944 7.64639 953 ft 4 kts 218°
2026-05-05 18:23 45.18959 7.64649 953 ft 0 kts 181°
2026-05-05 18:26 45.18957 7.64649 951 ft 1 kts 181°
2026-05-05 18:26 45.18936 7.64649 952 ft 5 kts 181°
2026-05-05 18:26 45.18888 7.64647 949 ft 9 kts 181°
2026-05-05 18:26 45.18812 7.64643 945 ft 12 kts 183°
2026-05-05 18:27 45.18721 7.64638 943 ft 13 kts 182°
2026-05-05 18:27 45.18712 7.64637 943 ft 0 kts 182°
2026-05-05 18:28 45.18633 7.64681 942 ft 17 kts 130°
2026-05-05 18:28 45.18646 7.64845 940 ft 18 kts 56°
2026-05-05 18:28 45.18695 7.64877 942 ft 1 kts
2026-05-05 18:29 45.18697 7.64877 942 ft 2 kts
2026-05-05 18:29 45.18700 7.64877 942 ft 0 kts
2026-05-05 18:30 45.18851 7.64886 949 ft 65 kts
2026-05-05 18:30 45.19606 7.64931 966 ft 149 kts
2026-05-05 18:30 45.20739 7.65016 1619 ft 165 kts
2026-05-05 18:31 45.21931 7.65110 2478 ft 180 kts
2026-05-05 18:31 45.23264 7.65190 3213 ft 201 kts
2026-05-05 18:31 45.24689 7.65266 3891 ft 211 kts
2026-05-05 18:31 45.26186 7.65459 4548 ft 225 kts 19°
2026-05-05 18:32 45.27493 7.66806 5006 ft 248 kts 57°
2026-05-05 18:32 45.27986 7.69211 5620 ft 267 kts 93°
2026-05-05 18:32 45.27609 7.71786 6540 ft 273 kts 110°
2026-05-05 18:32 45.26910 7.74319 7498 ft 277 kts 113°
2026-05-05 18:33 45.26503 7.77010 8400 ft 286 kts 90°
2026-05-05 18:33 45.26945 7.79781 9309 ft 294 kts 65°
2026-05-05 18:33 45.27938 7.82321 10200 ft 301 kts 61°
2026-05-05 18:33 45.29030 7.85016 10580 ft 325 kts 60°
2026-05-05 18:34 45.30206 7.87911 10951 ft 348 kts 60°
2026-05-05 18:34 45.31423 7.90915 11611 ft 359 kts 61°
2026-05-05 18:34 45.32683 7.94030 12393 ft 366 kts 61°
2026-05-05 18:34 45.33963 7.97212 13192 ft 374 kts 61°
2026-05-05 18:35 45.35263 8.00459 13970 ft 381 kts 61°
2026-05-05 18:35 45.36581 8.03760 14697 ft 387 kts 61°
2026-05-05 18:35 45.37902 8.07074 15470 ft 392 kts 61°
2026-05-05 18:35 45.39255 8.10470 16226 ft 397 kts 62°
2026-05-05 18:36 45.40625 8.13915 17003 ft 402 kts 62°
2026-05-05 18:36 45.42021 8.17427 17747 ft 408 kts 62°
2026-05-05 18:36 45.43414 8.20931 18446 ft 413 kts 62°
2026-05-05 18:36 45.44839 8.24518 19080 ft 418 kts 62°
2026-05-05 18:37 45.46279 8.28146 19716 ft 422 kts 62°
2026-05-05 18:37 45.47732 8.31815 20380 ft 426 kts 62°
2026-05-05 18:37 45.49198 8.35519 21027 ft 430 kts 62°
2026-05-05 18:37 45.50652 8.39206 21630 ft 434 kts 62°
2026-05-05 18:38 45.52138 8.42981 22242 ft 438 kts 62°
2026-05-05 18:38 45.53639 8.46789 22812 ft 442 kts 62°
2026-05-05 18:38 45.55155 8.50637 23364 ft 446 kts 62°
2026-05-05 18:38 45.56681 8.54519 23832 ft 450 kts 63°
2026-05-05 18:39 45.58218 8.58449 24256 ft 454 kts 63°
2026-05-05 18:39 45.59745 8.62359 24638 ft 458 kts 62°
2026-05-05 18:39 45.61500 8.66176 25005 ft 463 kts 52°
2026-05-05 18:39 45.63715 8.69540 25379 ft 467 kts 41°
2026-05-05 18:40 45.66323 8.72323 25767 ft 469 kts 30°
2026-05-05 18:40 45.69236 8.74431 26147 ft 469 kts 19°
2026-05-05 18:40 45.72361 8.75784 26526 ft 467 kts
2026-05-05 18:40 45.75560 8.76670 26904 ft 470 kts
2026-05-05 18:41 45.78738 8.77540 27269 ft 472 kts
2026-05-05 18:41 45.81981 8.78428 27633 ft 475 kts
2026-05-05 18:41 45.85262 8.79329 27875 ft 482 kts
2026-05-05 18:41 45.88582 8.80243 27990 ft 489 kts
2026-05-05 18:42 45.95398 8.82133 28004 ft 506 kts
2026-05-05 18:42 46.02348 8.84083 28002 ft 517 kts
2026-05-05 18:43 46.09464 8.86083 28005 ft 523 kts
2026-05-05 18:43 46.13046 8.87090 28000 ft 525 kts
2026-05-05 18:43 46.16657 8.87755 28005 ft 520 kts 358°
2026-05-05 18:44 46.23782 8.87049 28007 ft 514 kts 348°
2026-05-05 18:44 46.27353 8.86502 28000 ft 513 kts 348°
2026-05-05 18:44 46.30906 8.85967 27997 ft 514 kts 349°
2026-05-05 18:45 46.38034 8.84905 28039 ft 515 kts 349°
2026-05-05 18:45 46.41551 8.84377 27987 ft 513 kts 349°
2026-05-05 18:45 46.45076 8.83854 27477 ft 502 kts 349°
2026-05-05 18:46 46.48493 8.83355 27276 ft 482 kts 349°
2026-05-05 18:46 46.51774 8.82876 27133 ft 464 kts 349°
2026-05-05 18:46 46.54950 8.82404 26728 ft 453 kts 348°
2026-05-05 18:46 46.58028 8.81933 26263 ft 447 kts 348°
2026-05-05 18:47 46.61113 8.81455 25702 ft 443 kts 348°
2026-05-05 18:47 46.64174 8.80979 25119 ft 439 kts 349°
2026-05-05 18:47 46.67190 8.80512 24621 ft 434 kts 349°
2026-05-05 18:47 46.70181 8.80056 24095 ft 429 kts 349°
2026-05-05 18:48 46.73147 8.79607 23532 ft 427 kts 350°
2026-05-05 18:48 46.76094 8.79159 22909 ft 423 kts 350°
2026-05-05 18:48 46.78977 8.78721 22395 ft 419 kts 350°
2026-05-05 18:48 46.81868 8.78279 21899 ft 415 kts 350°
2026-05-05 18:49 46.84726 8.77842 21425 ft 411 kts 350°
2026-05-05 18:49 46.87556 8.77410 20973 ft 407 kts 350°
2026-05-05 18:49 46.90352 8.76982 20760 ft 396 kts 350°
2026-05-05 18:49 46.93049 8.76574 20576 ft 384 kts 350°
2026-05-05 18:50 46.95705 8.76175 19557 ft 395 kts 352°
2026-05-05 18:50 46.98499 8.76451 18699 ft 409 kts 12°
2026-05-05 18:50 47.01146 8.78058 18137 ft 411 kts 31°
2026-05-05 18:50 47.03279 8.80795 17589 ft 408 kts 51°
2026-05-05 18:51 47.04682 8.84363 17073 ft 402 kts 71°
2026-05-05 18:51 47.05207 8.88298 16882 ft 397 kts 90°
2026-05-05 18:51 47.04886 8.92287 16898 ft 394 kts 108°
2026-05-05 18:51 47.03775 8.95915 16900 ft 388 kts 127°
2026-05-05 18:52 47.01980 8.98812 16905 ft 381 kts 145°
2026-05-05 18:52 46.99705 9.00751 16907 ft 376 kts 162°
2026-05-05 18:52 46.97185 9.01607 16905 ft 370 kts 176°
2026-05-05 18:52 46.94665 9.01602 16919 ft 366 kts 190°
2026-05-05 18:53 46.92224 9.00614 16919 ft 363 kts 205°
2026-05-05 18:53 46.90089 8.98683 16921 ft 361 kts 221°
2026-05-05 18:53 46.88418 8.95934 16919 ft 362 kts 237°
2026-05-05 18:53 46.87372 8.92645 16918 ft 363 kts 252°
2026-05-05 18:54 46.87010 8.89020 16931 ft 355 kts 268°
2026-05-05 18:54 46.87351 8.85517 16933 ft 342 kts 283°
2026-05-05 18:54 46.88313 8.82295 16927 ft 350 kts 298°
2026-05-05 18:54 46.89876 8.79529 16928 ft 356 kts 315°
2026-05-05 18:55 46.91911 8.77503 16929 ft 363 kts 331°
2026-05-05 18:55 46.94342 8.76378 16922 ft 369 kts 349°
2026-05-05 18:55 46.96896 8.75945 16918 ft 370 kts 351°
2026-05-05 18:55 46.99438 8.75545 16917 ft 364 kts 351°
2026-05-05 18:56 47.01979 8.75146 16918 ft 369 kts 351°
2026-05-05 18:56 47.04539 8.74743 16918 ft 370 kts 351°
2026-05-05 18:56 47.07104 8.74335 16909 ft 370 kts 350°
2026-05-05 18:56 47.09616 8.73817 16927 ft 369 kts 348°
2026-05-05 18:57 47.12154 8.73172 16913 ft 369 kts 346°
2026-05-05 18:57 47.14680 8.72467 16907 ft 368 kts 346°
2026-05-05 18:57 47.17197 8.71748 16906 ft 368 kts 346°
2026-05-05 18:57 47.19708 8.71038 16683 ft 365 kts 346°
2026-05-05 18:58 47.22173 8.70361 16196 ft 363 kts 347°
2026-05-05 18:58 47.24656 8.69691 15724 ft 361 kts 346°
2026-05-05 18:58 47.27074 8.68778 15283 ft 356 kts 338°
2026-05-05 18:58 47.29374 8.67440 14846 ft 351 kts 331°
2026-05-05 18:59 47.31561 8.65939 14415 ft 350 kts 330°
2026-05-05 18:59 47.33760 8.64431 13998 ft 347 kts 330°
2026-05-05 18:59 47.35945 8.62936 13569 ft 344 kts 330°
2026-05-05 18:59 47.38066 8.61344 13095 ft 340 kts 326°
2026-05-05 19:00 47.40139 8.59653 12868 ft 339 kts 326°
2026-05-05 19:00 47.42205 8.57965 12897 ft 340 kts 326°
2026-05-05 19:00 47.44080 8.55968 12896 ft 333 kts 310°
2026-05-05 19:00 47.45406 8.53227 12892 ft 325 kts 291°
2026-05-05 19:01 47.46044 8.50066 12898 ft 319 kts 276°
2026-05-05 19:01 47.46370 8.46834 12876 ft 312 kts 275°
2026-05-05 19:01 47.46675 8.43789 12892 ft 296 kts 275°
2026-05-05 19:01 47.46968 8.40836 12904 ft 287 kts 275°
2026-05-05 19:02 47.47253 8.37931 12906 ft 284 kts 275°
2026-05-05 19:02 47.47536 8.35037 12915 ft 284 kts 275°
2026-05-05 19:02 47.47817 8.32152 12916 ft 283 kts 274°
2026-05-05 19:02 47.48099 8.29258 12904 ft 282 kts 274°
2026-05-05 19:03 47.48376 8.26424 12908 ft 282 kts 274°
2026-05-05 19:03 47.48656 8.23550 12916 ft 283 kts 274°
2026-05-05 19:03 47.48936 8.20667 12917 ft 283 kts 274°
2026-05-05 19:03 47.49215 8.17789 12915 ft 283 kts 274°
2026-05-05 19:04 47.49400 8.15884 12919 ft 282 kts 274°
2026-05-05 19:04 47.49672 8.13076 12916 ft 267 kts 274°
2026-05-05 19:04 47.50014 8.09584 12911 ft 251 kts 274°
2026-05-05 19:04 47.50180 8.07867 12917 ft 256 kts 274°
2026-05-05 19:05 47.50428 8.05241 12903 ft 258 kts 274°
2026-05-05 19:05 47.50819 8.02635 12899 ft 264 kts 291°
2026-05-05 19:05 47.52055 8.00562 12911 ft 279 kts 322°
2026-05-05 19:05 47.53926 7.99646 12896 ft 292 kts 353°
2026-05-05 19:06 47.55909 8.00227 12896 ft 302 kts 25°
2026-05-05 19:06 47.57473 8.02275 12890 ft 304 kts 59°
2026-05-05 19:06 47.58136 8.05195 12617 ft 297 kts 92°
2026-05-05 19:06 47.57872 8.08175 12245 ft 292 kts 107°
2026-05-05 19:07 47.57418 8.11110 11895 ft 292 kts 108°
2026-05-05 19:07 47.56940 8.13986 11586 ft 291 kts 109°
2026-05-05 19:07 47.56448 8.16895 11274 ft 289 kts 111°
2026-05-05 19:07 47.55535 8.19438 10981 ft 273 kts 141°
2026-05-05 19:08 47.54037 8.20938 10902 ft 256 kts 167°
2026-05-05 19:08 47.52367 8.21680 10907 ft 251 kts 164°
2026-05-05 19:08 47.50817 8.22932 10905 ft 256 kts 155°
2026-05-05 19:08 47.49318 8.24348 10907 ft 255 kts 154°
2026-05-05 19:09 47.47829 8.25773 10910 ft 255 kts 154°
2026-05-05 19:09 47.46335 8.27203 10910 ft 254 kts 154°
2026-05-05 19:09 47.44865 8.28611 10910 ft 254 kts 154°
2026-05-05 19:09 47.43372 8.30038 10912 ft 254 kts 154°
2026-05-05 19:10 47.41899 8.31444 10915 ft 254 kts 154°
2026-05-05 19:10 47.40412 8.32860 10915 ft 254 kts 153°
2026-05-05 19:10 47.38917 8.34262 10909 ft 256 kts 151°
2026-05-05 19:10 47.37672 8.36172 10898 ft 264 kts 124°
2026-05-05 19:11 47.37108 8.38771 10564 ft 270 kts 102°
2026-05-05 19:11 47.36891 8.41539 10216 ft 271 kts 99°
2026-05-05 19:11 47.36720 8.44272 9881 ft 270 kts 99°
2026-05-05 19:11 47.36552 8.47030 9555 ft 268 kts 98°
2026-05-05 19:12 47.36384 8.49767 9179 ft 267 kts 98°
2026-05-05 19:12 47.36216 8.52458 8825 ft 266 kts 98°
2026-05-05 19:12 47.36045 8.55171 8468 ft 265 kts 98°
2026-05-05 19:12 47.35871 8.57888 8130 ft 265 kts 98°
2026-05-05 19:13 47.35694 8.60585 7808 ft 264 kts 98°
2026-05-05 19:13 47.35514 8.63276 7489 ft 263 kts 98°
2026-05-05 19:13 47.35330 8.65953 7154 ft 262 kts 98°
2026-05-05 19:13 47.35144 8.68593 6814 ft 262 kts 99°
2026-05-05 19:14 47.34955 8.71267 6488 ft 262 kts 98°
2026-05-05 19:14 47.34784 8.73940 6164 ft 262 kts 93°
2026-05-05 19:14 47.34902 8.76593 5994 ft 257 kts 84°
2026-05-05 19:14 47.35104 8.79213 6008 ft 256 kts 84°
2026-05-05 19:15 47.35310 8.81767 6010 ft 249 kts 84°
2026-05-05 19:15 47.35510 8.84232 6041 ft 236 kts 84°
2026-05-05 19:15 47.35982 8.86523 6006 ft 234 kts 56°
2026-05-05 19:15 47.37126 8.88015 6002 ft 211 kts 19°
2026-05-05 19:16 47.38505 8.88534 6004 ft 204 kts
2026-05-05 19:16 47.39900 8.88849 5826 ft 199 kts
2026-05-05 19:16 47.41252 8.88926 5399 ft 194 kts 342°
2026-05-05 19:16 47.42433 8.88105 5039 ft 184 kts 317°
2026-05-05 19:17 47.43249 8.86687 5016 ft 181 kts 296°
2026-05-05 19:17 47.43637 8.84933 5014 ft 180 kts 275°
2026-05-05 19:17 47.43769 8.83118 5012 ft 180 kts 275°
2026-05-05 19:17 47.43904 8.81278 4918 ft 180 kts 275°
2026-05-05 19:18 47.44038 8.79450 4709 ft 179 kts 275°
2026-05-05 19:18 47.44173 8.77615 4456 ft 177 kts 275°
2026-05-05 19:18 47.44299 8.75899 4226 ft 159 kts 273°
2026-05-05 19:18 47.44417 8.74287 3985 ft 157 kts 273°
2026-05-05 19:19 47.44532 8.72696 3756 ft 155 kts 273°
2026-05-05 19:19 47.44647 8.71109 3525 ft 155 kts 273°
2026-05-05 19:19 47.44761 8.69542 3302 ft 156 kts 273°
2026-05-05 19:19 47.44877 8.67941 3074 ft 157 kts 273°
2026-05-05 19:20 47.44994 8.66321 2867 ft 158 kts 274°
2026-05-05 19:20 47.45139 8.64699 2704 ft 160 kts 275°
2026-05-05 19:20 47.45256 8.63125 2487 ft 150 kts 272°
2026-05-05 19:20 47.45330 8.61622 2170 ft 146 kts 274°
2026-05-05 19:21 47.45437 8.60142 1931 ft 143 kts 273°
2026-05-05 19:21 47.45540 8.58669 1709 ft 145 kts 275°
2026-05-05 19:21 47.45649 8.57186 1511 ft 145 kts 272°
2026-05-05 19:21 47.45754 8.55729 1398 ft 134 kts 273°
2026-05-05 19:22 47.45818 8.54732 1403 ft 78 kts 277°
2026-05-05 19:22 47.45864 8.54090 1408 ft 52 kts 276°
2026-05-05 19:22 47.45843 8.53782 1399 ft 23 kts 219°
2026-05-05 19:22 47.45718 8.53819 1398 ft 21 kts 120°
2026-05-05 19:23 47.45678 8.53988 1399 ft 16 kts 109°
2026-05-05 19:23 47.45637 8.54159 1394 ft 19 kts 110°
2026-05-05 19:23 47.45589 8.54355 1399 ft 21 kts 108°
2026-05-05 19:23 47.45545 8.54565 1399 ft 21 kts 108°
2026-05-05 19:24 47.45508 8.54755 1401 ft 3 kts 106°
2026-05-05 19:25 47.45501 8.54787 1384 ft 14 kts 108°
2026-05-05 19:25 47.45450 8.55000 1404 ft 25 kts 109°
2026-05-05 19:26 47.45394 8.55244 1403 ft 22 kts 111°
2026-05-05 19:26 47.45421 8.55374 1400 ft 15 kts 38°
2026-05-05 19:26 47.45506 8.55446 1401 ft 13 kts 39°
2026-05-05 19:26 47.45520 8.55559 1397 ft 11 kts 93°
2026-05-05 19:27 47.45514 8.55660 1397 ft 9 kts 96°
2026-05-05 19:27 47.45508 8.55746 1399 ft 8 kts 96°
2026-05-05 19:27 47.45487 8.55800 1404 ft 5 kts 166°
2026-05-05 19:27 47.45456 8.55806 1397 ft 4 kts 178°
2026-05-05 19:28 47.45434 8.55804 1401 ft 3 kts 184°
2026-05-05 19:28 47.45427 8.55803 1397 ft 0 kts 185°